UAE9920 SEQM-TJBQ
Flight info
| Callsign | UAE9920 |
|---|---|
| Flight time | N/A |
| Altitude | 34000 |
| Route | ARNOK3A ARNOK UP533 BOKAN UP778 RNG/N0483F350 UW26 CUC UW1 ENPUT UL342 PNA B892 ANTEX B520 BQN |
| Aircraft | B77L/H-SDE1E2E3FGHIJ2J3J4J5M1RWXY/LB1D1 |
Departure
| Time | 2026-04-30 20:30 |
|---|---|
| Airport | Mariscal Sucre International Airport (SEQM) |
Arrival
| Time | N/A |
|---|---|
| Airport | Rafael Hernández International Airport (TJBQ) |
| Time | Latitude | Longitude | Altitude | Speed | Heading |
|---|---|---|---|---|---|
| 2026-04-30 19:54 | -0.12825 | -78.35770 | 7862 ft | 0 kts | 266° |
| 2026-04-30 20:02 | -0.12825 | -78.35771 | 7862 ft | 0 kts | 266° |
| 2026-04-30 20:16 | -0.12825 | -78.35759 | 7863 ft | 4 kts | 266° |
| 2026-04-30 20:16 | -0.12823 | -78.35733 | 7865 ft | 3 kts | 266° |
| 2026-04-30 20:16 | -0.12821 | -78.35709 | 7866 ft | 2 kts | 266° |
| 2026-04-30 20:16 | -0.12824 | -78.35685 | 7868 ft | 4 kts | 314° |
| 2026-04-30 20:17 | -0.12846 | -78.35677 | 7869 ft | 4 kts | 358° |
| 2026-04-30 20:17 | -0.12861 | -78.35676 | 7870 ft | 2 kts | 356° |
| 2026-04-30 20:17 | -0.12863 | -78.35676 | 7870 ft | 2 kts | 356° |
| 2026-04-30 20:20 | -0.12862 | -78.35676 | 7870 ft | 1 kts | 356° |
| 2026-04-30 20:20 | -0.12843 | -78.35677 | 7869 ft | 4 kts | 356° |
| 2026-04-30 20:21 | -0.12804 | -78.35680 | 7867 ft | 7 kts | 356° |
| 2026-04-30 20:21 | -0.12743 | -78.35684 | 7861 ft | 10 kts | 356° |
| 2026-04-30 20:21 | -0.12680 | -78.35644 | 7861 ft | 12 kts | 81° |
| 2026-04-30 20:21 | -0.12744 | -78.35601 | 7868 ft | 12 kts | 174° |
| 2026-04-30 20:22 | -0.12795 | -78.35598 | 7870 ft | 10 kts | 177° |
| 2026-04-30 20:22 | -0.12888 | -78.35594 | 7873 ft | 10 kts | 177° |
| 2026-04-30 20:22 | -0.12958 | -78.35591 | 7875 ft | 10 kts | 177° |
| 2026-04-30 20:22 | -0.13029 | -78.35588 | 7879 ft | 10 kts | 177° |
| 2026-04-30 20:23 | -0.13075 | -78.35585 | 7881 ft | 10 kts | 177° |
| 2026-04-30 20:23 | -0.13145 | -78.35582 | 7885 ft | 10 kts | 177° |
| 2026-04-30 20:23 | -0.13238 | -78.35578 | 7888 ft | 10 kts | 177° |
| 2026-04-30 20:23 | -0.13308 | -78.35575 | 7889 ft | 10 kts | 177° |
| 2026-04-30 20:24 | -0.13378 | -78.35571 | 7890 ft | 10 kts | 178° |
| 2026-04-30 20:24 | -0.13448 | -78.35569 | 7891 ft | 10 kts | 178° |
| 2026-04-30 20:24 | -0.13519 | -78.35566 | 7893 ft | 10 kts | 178° |
| 2026-04-30 20:24 | -0.13565 | -78.35565 | 7895 ft | 10 kts | 178° |
| 2026-04-30 20:25 | -0.13705 | -78.35559 | 7900 ft | 10 kts | 178° |
| 2026-04-30 20:25 | -0.13775 | -78.35557 | 7910 ft | 10 kts | 178° |
| 2026-04-30 20:26 | -0.13938 | -78.35551 | 7904 ft | 10 kts | 177° |
| 2026-04-30 20:26 | -0.14055 | -78.35546 | 7916 ft | 10 kts | 177° |
| 2026-04-30 20:26 | -0.14125 | -78.35542 | 7922 ft | 10 kts | 177° |
| 2026-04-30 20:27 | -0.14253 | -78.35503 | 7924 ft | 10 kts | 127° |
| 2026-04-30 20:27 | -0.14237 | -78.35378 | 7927 ft | 9 kts | 44° |
| 2026-04-30 20:28 | -0.14088 | -78.35374 | 7917 ft | 10 kts | 358° |
| 2026-04-30 20:28 | -0.14083 | -78.35374 | 7917 ft | 0 kts | 358° |
| 2026-04-30 20:29 | -0.13326 | -78.35406 | 7891 ft | 128 kts | 358° |
| 2026-04-30 20:30 | -0.09197 | -78.35574 | 8654 ft | 234 kts | 358° |
| 2026-04-30 20:30 | -0.04443 | -78.36779 | 10517 ft | 250 kts | 340° |
| 2026-04-30 20:31 | 0.00599 | -78.38653 | 12162 ft | 272 kts | 342° |
| 2026-04-30 20:32 | 0.06713 | -78.40801 | 12664 ft | 348 kts | 342° |
| 2026-04-30 20:32 | 0.11589 | -78.42432 | 13057 ft | 385 kts | 348° |
| 2026-04-30 20:33 | 0.14236 | -78.42559 | 13441 ft | 392 kts | 11° |
| 2026-04-30 20:33 | 0.18993 | -78.40059 | 14798 ft | 391 kts | 44° |
| 2026-04-30 20:33 | 0.20990 | -78.38189 | 15381 ft | 397 kts | 45° |
| 2026-04-30 20:34 | 0.25000 | -78.34366 | 16847 ft | 401 kts | 45° |
| 2026-04-30 20:34 | 0.29106 | -78.30488 | 18043 ft | 413 kts | 45° |
| 2026-04-30 20:35 | 0.31173 | -78.28555 | 18592 ft | 417 kts | 45° |
| 2026-04-30 20:35 | 0.33305 | -78.26566 | 19184 ft | 420 kts | 44° |
| 2026-04-30 20:35 | 0.37617 | -78.22551 | 20311 ft | 427 kts | 45° |
| 2026-04-30 20:36 | 0.39782 | -78.20536 | 21036 ft | 424 kts | 45° |
| 2026-04-30 20:36 | 0.41943 | -78.18522 | 21677 ft | 425 kts | 45° |
| 2026-04-30 20:36 | 0.46285 | -78.14472 | 22782 ft | 430 kts | 45° |
| 2026-04-30 20:37 | 0.48475 | -78.12434 | 23361 ft | 432 kts | 44° |
| 2026-04-30 20:37 | 0.50675 | -78.10420 | 23751 ft | 437 kts | 42° |
| 2026-04-30 20:37 | 0.53060 | -78.08531 | 24151 ft | 440 kts | 38° |
| 2026-04-30 20:37 | 0.55554 | -78.06722 | 24468 ft | 446 kts | 36° |
| 2026-04-30 20:38 | 0.58096 | -78.04919 | 24806 ft | 451 kts | 36° |
| 2026-04-30 20:38 | 0.60641 | -78.03099 | 25086 ft | 456 kts | 37° |
| 2026-04-30 20:38 | 0.63216 | -78.01228 | 25395 ft | 461 kts | 37° |
| 2026-04-30 20:39 | 0.68414 | -77.97385 | 26093 ft | 468 kts | 37° |
| 2026-04-30 20:39 | 0.71042 | -77.95430 | 26421 ft | 473 kts | 37° |
| 2026-04-30 20:39 | 0.73694 | -77.93456 | 26702 ft | 478 kts | 37° |
| 2026-04-30 20:40 | 0.79025 | -77.89498 | 27407 ft | 483 kts | 37° |
| 2026-04-30 20:40 | 0.81776 | -77.87557 | 27735 ft | 487 kts | 32° |
| 2026-04-30 20:40 | 0.84709 | -77.85833 | 28063 ft | 490 kts | 30° |
| 2026-04-30 20:41 | 0.90700 | -77.82488 | 28689 ft | 497 kts | 29° |
| 2026-04-30 20:41 | 0.93732 | -77.80797 | 29260 ft | 500 kts | 29° |
| 2026-04-30 20:41 | 0.96774 | -77.79091 | 29571 ft | 504 kts | 29° |
| 2026-04-30 20:41 | 0.99832 | -77.77366 | 29937 ft | 505 kts | 29° |
| 2026-04-30 20:42 | 1.02859 | -77.75651 | 30202 ft | 509 kts | 29° |
| 2026-04-30 20:42 | 1.05942 | -77.73900 | 30454 ft | 511 kts | 29° |
| 2026-04-30 20:42 | 1.12117 | -77.70386 | 31184 ft | 508 kts | 28° |
| 2026-04-30 20:43 | 1.15178 | -77.68644 | 31690 ft | 504 kts | 28° |
| 2026-04-30 20:43 | 1.18215 | -77.66917 | 32086 ft | 503 kts | 28° |
| 2026-04-30 20:43 | 1.21254 | -77.65190 | 32409 ft | 502 kts | 28° |
| 2026-04-30 20:44 | 1.27336 | -77.61733 | 33145 ft | 503 kts | 28° |
| 2026-04-30 20:44 | 1.30378 | -77.60005 | 33576 ft | 502 kts | 28° |
| 2026-04-30 20:44 | 1.36368 | -77.56601 | 33933 ft | 497 kts | 28° |
| 2026-04-30 20:45 | 1.42381 | -77.53181 | 33892 ft | 499 kts | 27° |
| 2026-04-30 20:45 | 1.48427 | -77.49744 | 33902 ft | 501 kts | 27° |
| 2026-04-30 20:46 | 1.60523 | -77.42868 | 33878 ft | 502 kts | 27° |
| 2026-04-30 20:47 | 1.69637 | -77.37686 | 33854 ft | 503 kts | 27° |
| 2026-04-30 20:48 | 1.78755 | -77.32501 | 33849 ft | 502 kts | 27° |
| 2026-04-30 20:48 | 1.84831 | -77.29045 | 33844 ft | 502 kts | 27° |
| 2026-04-30 20:49 | 1.90858 | -77.25617 | 33856 ft | 502 kts | 27° |
| 2026-04-30 20:50 | 1.99975 | -77.20432 | 33845 ft | 503 kts | 27° |
| 2026-04-30 20:50 | 2.06066 | -77.16967 | 33844 ft | 504 kts | 27° |
| 2026-04-30 20:51 | 2.12123 | -77.13520 | 33861 ft | 504 kts | 27° |
| 2026-04-30 20:51 | 2.21265 | -77.08318 | 33860 ft | 504 kts | 27° |
| 2026-04-30 20:52 | 2.27361 | -77.04850 | 33848 ft | 504 kts | 27° |
| 2026-04-30 20:53 | 2.36517 | -76.99638 | 33852 ft | 505 kts | 27° |
| 2026-04-30 20:53 | 2.42588 | -76.96182 | 33882 ft | 505 kts | 27° |
| 2026-04-30 20:54 | 2.51760 | -76.90959 | 33868 ft | 507 kts | 27° |
| 2026-04-30 20:55 | 2.60959 | -76.85722 | 33903 ft | 508 kts | 27° |
| 2026-04-30 20:55 | 2.67060 | -76.82248 | 33895 ft | 508 kts | 27° |
| 2026-04-30 20:56 | 2.76270 | -76.77002 | 33871 ft | 508 kts | 27° |
| 2026-04-30 20:57 | 2.85480 | -76.71754 | 33864 ft | 508 kts | 27° |
| 2026-04-30 20:57 | 2.91579 | -76.68279 | 33859 ft | 507 kts | 27° |
| 2026-04-30 20:58 | 3.00774 | -76.63039 | 33845 ft | 507 kts | 27° |
| 2026-04-30 20:58 | 3.06911 | -76.59541 | 33853 ft | 508 kts | 27° |
| 2026-04-30 20:59 | 3.16082 | -76.54312 | 33854 ft | 509 kts | 27° |
| 2026-04-30 21:00 | 3.28372 | -76.47300 | 33870 ft | 509 kts | 27° |
| 2026-04-30 21:01 | 3.37610 | -76.42027 | 33860 ft | 510 kts | 27° |
| 2026-04-30 21:02 | 3.47240 | -76.37780 | 33870 ft | 506 kts | 18° |
| 2026-04-30 21:02 | 3.53842 | -76.35335 | 33858 ft | 506 kts | 18° |
| 2026-04-30 21:03 | 3.60428 | -76.32862 | 33857 ft | 506 kts | 18° |
| 2026-04-30 21:03 | 3.67007 | -76.30357 | 33869 ft | 506 kts | 18° |
| 2026-04-30 21:04 | 3.73535 | -76.27861 | 33881 ft | 506 kts | 18° |
| 2026-04-30 21:04 | 3.83400 | -76.24090 | 33905 ft | 506 kts | 18° |
| 2026-04-30 21:05 | 3.89980 | -76.21576 | 33927 ft | 506 kts | 18° |
| 2026-04-30 21:05 | 3.96517 | -76.19079 | 33951 ft | 506 kts | 18° |
| 2026-04-30 21:06 | 4.03101 | -76.16563 | 33946 ft | 506 kts | 18° |
| 2026-04-30 21:06 | 4.09683 | -76.14048 | 33942 ft | 506 kts | 18° |
| 2026-04-30 21:07 | 4.16263 | -76.11532 | 33935 ft | 506 kts | 18° |
| 2026-04-30 21:07 | 4.22799 | -76.09032 | 33941 ft | 506 kts | 18° |
| 2026-04-30 21:08 | 4.29365 | -76.06522 | 33937 ft | 506 kts | 18° |
| 2026-04-30 21:08 | 4.35837 | -76.04047 | 33937 ft | 506 kts | 18° |
| 2026-04-30 21:09 | 4.42413 | -76.01531 | 33927 ft | 506 kts | 18° |
| 2026-04-30 21:09 | 4.48944 | -75.99033 | 33898 ft | 506 kts | 18° |
| 2026-04-30 21:10 | 4.55526 | -75.96514 | 33873 ft | 507 kts | 18° |
| 2026-04-30 21:10 | 4.62115 | -75.93992 | 33845 ft | 508 kts | 18° |
| 2026-04-30 21:11 | 4.68724 | -75.91462 | 33938 ft | 508 kts | 18° |
| 2026-04-30 21:11 | 4.75331 | -75.88931 | 33942 ft | 509 kts | 18° |
| 2026-04-30 21:12 | 4.81941 | -75.86399 | 33946 ft | 509 kts | 18° |
| 2026-04-30 21:12 | 4.88518 | -75.83880 | 33927 ft | 509 kts | 18° |
| 2026-04-30 21:13 | 4.95126 | -75.81348 | 33953 ft | 508 kts | 18° |
| 2026-04-30 21:13 | 5.01726 | -75.78818 | 33996 ft | 507 kts | 18° |
| 2026-04-30 21:14 | 5.08317 | -75.76292 | 34051 ft | 508 kts | 18° |
| 2026-04-30 21:14 | 5.14944 | -75.73752 | 34009 ft | 511 kts | 18° |
| 2026-04-30 21:15 | 5.21536 | -75.71223 | 34004 ft | 510 kts | 18° |
| 2026-04-30 21:15 | 5.28163 | -75.68680 | 33983 ft | 509 kts | 18° |
| 2026-04-30 21:16 | 5.34776 | -75.66143 | 33947 ft | 508 kts | 18° |
| 2026-04-30 21:16 | 5.41364 | -75.63615 | 33958 ft | 508 kts | 18° |
| 2026-04-30 21:17 | 5.47924 | -75.61096 | 33925 ft | 508 kts | 18° |
| 2026-04-30 21:17 | 5.54529 | -75.58561 | 33922 ft | 508 kts | 18° |
| 2026-04-30 21:18 | 5.61127 | -75.56027 | 33913 ft | 508 kts | 18° |
| 2026-04-30 21:18 | 5.67722 | -75.53492 | 33905 ft | 508 kts | 18° |
| 2026-04-30 21:19 | 5.74318 | -75.50956 | 33915 ft | 508 kts | 18° |
| 2026-04-30 21:19 | 5.80877 | -75.48434 | 33917 ft | 508 kts | 18° |
| 2026-04-30 21:20 | 5.87479 | -75.45894 | 33987 ft | 508 kts | 18° |
| 2026-04-30 21:20 | 5.94081 | -75.43352 | 34052 ft | 508 kts | 17° |
| 2026-04-30 21:21 | 6.00652 | -75.40694 | 34122 ft | 510 kts | 22° |
| 2026-04-30 21:22 | 6.10165 | -75.35982 | 34187 ft | 510 kts | 22° |
| 2026-04-30 21:22 | 6.18807 | -75.29842 | 34153 ft | 516 kts | 48° |
| 2026-04-30 21:23 | 6.20924 | -75.26921 | 34108 ft | 519 kts | 58° |
| 2026-04-30 21:23 | 6.26112 | -75.17462 | 33989 ft | 520 kts | 60° |
| 2026-04-30 21:24 | 6.29631 | -75.11093 | 33908 ft | 522 kts | 59° |
| 2026-04-30 21:24 | 6.33194 | -75.04752 | 33841 ft | 522 kts | 59° |
| 2026-04-30 21:25 | 6.38547 | -74.95265 | 33841 ft | 522 kts | 59° |
| 2026-04-30 21:26 | 6.43902 | -74.85754 | 33837 ft | 522 kts | 59° |
| 2026-04-30 21:27 | 6.49251 | -74.76242 | 33815 ft | 521 kts | 59° |
| 2026-04-30 21:27 | 6.52792 | -74.69942 | 33814 ft | 520 kts | 59° |
| 2026-04-30 21:28 | 6.58128 | -74.60438 | 33794 ft | 520 kts | 59° |
| 2026-04-30 21:29 | 6.63473 | -74.50927 | 33790 ft | 520 kts | 59° |
| 2026-04-30 21:30 | 6.72354 | -74.35137 | 33747 ft | 520 kts | 59° |
| 2026-04-30 21:31 | 6.81216 | -74.19339 | 33742 ft | 520 kts | 59° |
| 2026-04-30 21:32 | 6.86545 | -74.09832 | 33737 ft | 520 kts | 59° |
| 2026-04-30 21:32 | 6.90099 | -74.03490 | 33719 ft | 520 kts | 59° |
| 2026-04-30 21:33 | 6.95429 | -73.93969 | 33702 ft | 520 kts | 59° |
| 2026-04-30 21:34 | 6.98954 | -73.87664 | 33693 ft | 520 kts | 59° |
| 2026-04-30 21:34 | 7.04448 | -73.78252 | 33737 ft | 519 kts | 53° |
| 2026-04-30 21:35 | 7.08618 | -73.72358 | 33733 ft | 519 kts | 52° |
| 2026-04-30 21:35 | 7.12836 | -73.66455 | 33732 ft | 520 kts | 53° |
| 2026-04-30 21:36 | 7.17000 | -73.60562 | 33747 ft | 520 kts | 53° |
| 2026-04-30 21:37 | 7.25345 | -73.48657 | 33794 ft | 520 kts | 53° |
| 2026-04-30 21:37 | 7.29517 | -73.42703 | 33811 ft | 521 kts | 53° |
| 2026-04-30 21:38 | 7.33667 | -73.36779 | 33841 ft | 521 kts | 53° |
| 2026-04-30 21:38 | 7.37847 | -73.30813 | 33843 ft | 521 kts | 53° |
| 2026-04-30 21:39 | 7.42031 | -73.24837 | 33824 ft | 522 kts | 53° |
| 2026-04-30 21:39 | 7.46214 | -73.18862 | 33871 ft | 522 kts | 53° |
| 2026-04-30 21:40 | 7.50395 | -73.12886 | 33874 ft | 522 kts | 53° |
| 2026-04-30 21:40 | 7.54551 | -73.06943 | 33915 ft | 522 kts | 53° |
| 2026-04-30 21:41 | 7.58731 | -73.00962 | 33921 ft | 522 kts | 53° |
| 2026-04-30 21:41 | 7.62911 | -72.94982 | 33949 ft | 521 kts | 53° |
| 2026-04-30 21:42 | 7.67088 | -72.89003 | 33941 ft | 521 kts | 53° |
| 2026-04-30 21:42 | 7.71258 | -72.83029 | 34013 ft | 525 kts | 53° |
| 2026-04-30 21:43 | 7.73323 | -72.80071 | 34461 ft | 521 kts | 53° |
| 2026-04-30 21:43 | 7.75404 | -72.77089 | 34854 ft | 519 kts | 53° |
| 2026-04-30 21:43 | 7.79580 | -72.71101 | 34890 ft | 521 kts | 53° |
| 2026-04-30 21:44 | 7.83722 | -72.65154 | 34848 ft | 518 kts | 53° |
| 2026-04-30 21:44 | 7.87858 | -72.59222 | 34838 ft | 516 kts | 53° |
| 2026-04-30 21:45 | 7.92222 | -72.53500 | 34826 ft | 513 kts | 42° |
| 2026-04-30 21:45 | 7.97710 | -72.49068 | 34839 ft | 507 kts | 28° |
| 2026-04-30 21:46 | 8.03946 | -72.45847 | 34830 ft | 504 kts | 22° |
| 2026-04-30 21:46 | 8.10242 | -72.42723 | 34845 ft | 505 kts | 24° |
| 2026-04-30 21:47 | 8.16505 | -72.39513 | 34830 ft | 504 kts | 24° |
| 2026-04-30 21:47 | 8.22844 | -72.36510 | 34858 ft | 501 kts | 17° |
| 2026-04-30 21:48 | 8.29378 | -72.34213 | 34826 ft | 501 kts | 15° |
| 2026-04-30 21:48 | 8.35972 | -72.31944 | 34829 ft | 501 kts | 15° |
| 2026-04-30 21:49 | 8.42554 | -72.29641 | 34802 ft | 501 kts | 15° |
| 2026-04-30 21:49 | 8.49085 | -72.27327 | 34803 ft | 500 kts | 15° |
| 2026-04-30 21:50 | 8.55649 | -72.24993 | 34793 ft | 500 kts | 15° |
| 2026-04-30 21:50 | 8.62213 | -72.22661 | 34793 ft | 500 kts | 15° |
| 2026-04-30 21:51 | 8.68774 | -72.20331 | 34788 ft | 500 kts | 15° |
| 2026-04-30 21:51 | 8.75292 | -72.18015 | 34784 ft | 500 kts | 15° |
| 2026-04-30 21:52 | 8.81848 | -72.15685 | 34782 ft | 500 kts | 15° |
| 2026-04-30 21:52 | 8.88413 | -72.13351 | 34783 ft | 500 kts | 15° |
| 2026-04-30 21:53 | 8.94970 | -72.11019 | 34784 ft | 500 kts | 15° |
| 2026-04-30 21:53 | 9.01529 | -72.08685 | 34787 ft | 500 kts | 15° |
| 2026-04-30 21:54 | 9.08041 | -72.06367 | 34784 ft | 500 kts | 15° |
| 2026-04-30 21:54 | 9.14602 | -72.04030 | 34785 ft | 500 kts | 15° |
| 2026-04-30 21:55 | 9.21161 | -72.01694 | 34786 ft | 500 kts | 15° |
| 2026-04-30 21:55 | 9.27720 | -71.99356 | 34785 ft | 500 kts | 15° |
| 2026-04-30 21:56 | 9.34235 | -71.97033 | 34785 ft | 500 kts | 15° |
| 2026-04-30 21:56 | 9.40790 | -71.94694 | 34791 ft | 500 kts | 16° |
| 2026-04-30 21:57 | 9.47350 | -71.92353 | 34789 ft | 500 kts | 16° |
| 2026-04-30 21:57 | 9.53907 | -71.90012 | 34796 ft | 499 kts | 16° |
| 2026-04-30 21:58 | 9.60461 | -71.87669 | 34785 ft | 499 kts | 16° |
| 2026-04-30 21:58 | 9.66957 | -71.85344 | 34790 ft | 498 kts | 16° |
| 2026-04-30 21:59 | 9.73492 | -71.82997 | 34787 ft | 498 kts | 17° |
| 2026-04-30 22:00 | 9.83172 | -71.79146 | 34793 ft | 499 kts | 19° |
| 2026-04-30 22:00 | 9.92809 | -71.75281 | 34791 ft | 499 kts | 19° |
| 2026-04-30 22:01 | 9.99274 | -71.72712 | 34792 ft | 499 kts | 19° |
| 2026-04-30 22:01 | 10.05740 | -71.70130 | 34791 ft | 500 kts | 19° |
| 2026-04-30 22:02 | 10.12219 | -71.67514 | 34788 ft | 502 kts | 19° |
| 2026-04-30 22:02 | 10.18714 | -71.64886 | 34793 ft | 504 kts | 19° |
| 2026-04-30 22:03 | 10.25205 | -71.62260 | 34795 ft | 506 kts | 19° |
| 2026-04-30 22:03 | 10.31742 | -71.59614 | 34792 ft | 507 kts | 19° |
| 2026-04-30 22:04 | 10.38302 | -71.56962 | 34788 ft | 507 kts | 19° |
| 2026-04-30 22:05 | 10.48109 | -71.53056 | 34790 ft | 506 kts | 19° |
| 2026-04-30 22:05 | 10.54657 | -71.50443 | 34792 ft | 505 kts | 20° |
| 2026-04-30 22:06 | 10.61191 | -71.47830 | 34794 ft | 504 kts | 20° |
| 2026-04-30 22:06 | 10.70972 | -71.43935 | 34793 ft | 503 kts | 19° |
| 2026-04-30 22:07 | 10.77491 | -71.41332 | 34796 ft | 504 kts | 20° |
| 2026-04-30 22:07 | 10.83956 | -71.38731 | 34804 ft | 506 kts | 20° |
| 2026-04-30 22:08 | 10.90511 | -71.36088 | 34805 ft | 508 kts | 20° |
| 2026-04-30 22:08 | 10.97093 | -71.33433 | 34808 ft | 509 kts | 20° |
| 2026-04-30 22:09 | 11.03684 | -71.30775 | 34804 ft | 510 kts | 20° |
| 2026-04-30 22:09 | 11.10253 | -71.28125 | 34801 ft | 511 kts | 19° |
| 2026-04-30 22:10 | 11.16871 | -71.25453 | 34810 ft | 512 kts | 19° |
| 2026-04-30 22:10 | 11.23494 | -71.22778 | 34806 ft | 512 kts | 19° |
| 2026-04-30 22:11 | 11.33428 | -71.18763 | 34807 ft | 512 kts | 19° |
| 2026-04-30 22:12 | 11.40000 | -71.16105 | 34804 ft | 512 kts | 19° |
| 2026-04-30 22:12 | 11.46611 | -71.13430 | 34810 ft | 511 kts | 19° |
| 2026-04-30 22:13 | 11.53209 | -71.10758 | 34803 ft | 509 kts | 19° |
| 2026-04-30 22:13 | 11.59785 | -71.08094 | 34801 ft | 508 kts | 19° |
| 2026-04-30 22:14 | 11.66303 | -71.05451 | 34804 ft | 507 kts | 19° |
| 2026-04-30 22:14 | 11.72860 | -71.02789 | 34823 ft | 507 kts | 19° |
| 2026-04-30 22:15 | 11.79417 | -71.00130 | 34819 ft | 507 kts | 18° |
| 2026-04-30 22:15 | 11.85973 | -70.97479 | 34821 ft | 507 kts | 18° |
| 2026-04-30 22:16 | 11.92481 | -70.94844 | 34812 ft | 507 kts | 18° |
| 2026-04-30 22:17 | 12.05591 | -70.89522 | 34827 ft | 507 kts | 18° |
| 2026-04-30 22:17 | 12.15428 | -70.85521 | 34818 ft | 508 kts | 18° |
| 2026-04-30 22:18 | 12.25324 | -70.81876 | 34827 ft | 503 kts | 8° |
| 2026-04-30 22:19 | 12.35579 | -70.79634 | 34824 ft | 503 kts | 7° |
| 2026-04-30 22:20 | 12.45839 | -70.77304 | 34836 ft | 503 kts | 8° |
| 2026-04-30 22:20 | 12.55860 | -70.74113 | 34825 ft | 509 kts | 18° |
| 2026-04-30 22:21 | 12.62404 | -70.71361 | 34830 ft | 508 kts | 18° |
| 2026-04-30 22:21 | 12.68954 | -70.68633 | 34838 ft | 508 kts | 18° |
| 2026-04-30 22:22 | 12.75503 | -70.65945 | 34838 ft | 507 kts | 18° |
| 2026-04-30 22:22 | 12.82056 | -70.63260 | 34849 ft | 507 kts | 18° |
| 2026-04-30 22:23 | 12.88550 | -70.60592 | 34841 ft | 506 kts | 18° |
| 2026-04-30 22:23 | 12.95086 | -70.57908 | 34853 ft | 505 kts | 18° |
| 2026-04-30 22:24 | 13.01632 | -70.55282 | 34851 ft | 505 kts | 18° |
| 2026-04-30 22:24 | 13.08152 | -70.52613 | 34854 ft | 505 kts | 18° |
| 2026-04-30 22:25 | 13.14614 | -70.49928 | 34863 ft | 504 kts | 19° |
| 2026-04-30 22:25 | 13.21116 | -70.47231 | 34859 ft | 503 kts | 19° |
| 2026-04-30 22:26 | 13.30847 | -70.43202 | 34862 ft | 502 kts | 19° |
| 2026-04-30 22:27 | 13.37321 | -70.40521 | 34862 ft | 501 kts | 19° |
| 2026-04-30 22:27 | 13.46975 | -70.36518 | 34869 ft | 502 kts | 19° |
| 2026-04-30 22:28 | 13.56691 | -70.32482 | 34875 ft | 503 kts | 19° |
| 2026-04-30 22:29 | 13.69651 | -70.27136 | 34874 ft | 504 kts | 19° |
| 2026-04-30 22:31 | 13.92469 | -70.17705 | 34874 ft | 505 kts | 18° |
| 2026-04-30 22:32 | 14.08858 | -70.11390 | 34885 ft | 503 kts | 14° |
| 2026-04-30 22:33 | 14.25523 | -70.05771 | 34888 ft | 505 kts | 15° |
| 2026-04-30 22:35 | 14.42117 | -69.99986 | 34895 ft | 506 kts | 18° |
| 2026-04-30 22:36 | 14.58471 | -69.93306 | 34894 ft | 507 kts | 19° |
| 2026-04-30 22:37 | 14.71617 | -69.87960 | 34892 ft | 508 kts | 18° |
| 2026-04-30 22:38 | 14.84750 | -69.82618 | 34908 ft | 510 kts | 18° |
| 2026-04-30 22:39 | 14.94672 | -69.78571 | 34904 ft | 512 kts | 18° |
| 2026-04-30 22:40 | 15.14727 | -69.71108 | 34916 ft | 514 kts | 15° |
| 2026-04-30 22:41 | 15.31644 | -69.64992 | 34912 ft | 519 kts | 15° |
| 2026-04-30 22:43 | 15.49087 | -69.58648 | 34912 ft | 519 kts | 14° |
| 2026-04-30 22:44 | 15.62341 | -69.53820 | 34914 ft | 519 kts | 14° |
| 2026-04-30 22:45 | 15.82717 | -69.46354 | 34917 ft | 516 kts | 14° |
| 2026-04-30 22:47 | 16.02947 | -69.38892 | 34939 ft | 516 kts | 15° |
| 2026-04-30 22:48 | 16.16351 | -69.33518 | 34938 ft | 520 kts | 15° |
| 2026-04-30 22:49 | 16.36666 | -69.25402 | 34930 ft | 522 kts | 15° |
| 2026-04-30 22:51 | 16.56969 | -69.17284 | 34931 ft | 521 kts | 15° |
| 2026-04-30 22:52 | 16.67127 | -69.13242 | 34942 ft | 520 kts | 15° |
| 2026-04-30 22:53 | 16.80595 | -69.07860 | 34937 ft | 520 kts | 15° |
| 2026-04-30 22:53 | 16.90710 | -69.03809 | 34945 ft | 519 kts | 15° |
| 2026-04-30 22:55 | 17.07547 | -68.97083 | 34950 ft | 520 kts | 15° |
| 2026-04-30 22:56 | 17.19920 | -68.92135 | 34945 ft | 520 kts | 15° |
| 2026-04-30 22:57 | 17.37914 | -68.84887 | 34950 ft | 521 kts | 15° |
| 2026-04-30 22:58 | 17.51385 | -68.79450 | 34947 ft | 520 kts | 15° |
| 2026-04-30 22:59 | 17.70483 | -68.71723 | 34941 ft | 514 kts | 15° |